createdAt,value
2023-05-16T00:01:45.186Z,10.74
2023-05-16T00:04:12.458Z,10.79
2023-05-16T00:06:39.412Z,10.77
2023-05-16T00:09:06.204Z,10.71
2023-05-16T00:11:35.517Z,10.64
2023-05-16T00:14:02.824Z,10.56
2023-05-16T00:16:30.330Z,10.38
2023-05-16T00:19:01.262Z,10.44
2023-05-16T00:21:28.392Z,10.43
2023-05-16T00:23:55.254Z,10.48
2023-05-16T00:26:26.851Z,10.34
2023-05-16T00:28:53.824Z,10.45
2023-05-16T00:31:20.923Z,10.41
2023-05-16T00:33:47.691Z,10.32
2023-05-16T00:36:14.494Z,10.39
2023-05-16T00:38:41.512Z,10.33
2023-05-16T00:41:08.382Z,10.14
2023-05-16T00:43:35.563Z,10.05
2023-05-16T00:46:02.561Z,10.03
2023-05-16T00:48:29.769Z,10.00
2023-05-16T00:50:59.228Z,9.90
2023-05-16T00:53:27.005Z,9.91
2023-05-16T00:55:53.923Z,9.90
2023-05-16T00:58:26.173Z,9.91
2023-05-16T01:00:53.467Z,9.93
2023-05-16T01:03:23.137Z,9.92
2023-05-16T01:05:52.946Z,9.83
2023-05-16T01:08:20.709Z,9.74
2023-05-16T01:11:01.200Z,9.65
2023-05-16T01:13:36.994Z,9.58
2023-05-16T01:16:25.627Z,9.34
2023-05-16T01:19:06.320Z,9.37
2023-05-16T01:22:05.835Z,9.40
2023-05-16T01:25:00.328Z,9.39
2023-05-16T01:27:35.442Z,9.31
2023-05-16T01:30:14.161Z,9.29
2023-05-16T01:32:41.064Z,9.16
2023-05-16T01:35:14.478Z,9.05
2023-05-16T01:38:04.416Z,9.02
2023-05-16T01:40:48.119Z,9.01
2023-05-16T01:43:21.000Z,8.99
2023-05-16T01:46:04.432Z,8.94
2023-05-16T01:48:42.250Z,8.86
2023-05-16T01:51:10.613Z,8.75
2023-05-16T01:53:42.588Z,8.77
2023-05-16T01:56:15.618Z,8.75
2023-05-16T01:58:43.642Z,8.66
2023-05-16T02:01:13.563Z,8.60
2023-05-16T02:03:40.546Z,8.65
2023-05-16T02:06:07.796Z,8.62
2023-05-16T02:08:39.359Z,8.56
2023-05-16T02:11:06.332Z,8.53
2023-05-16T02:13:33.135Z,8.48
2023-05-16T02:15:59.896Z,8.49
2023-05-16T02:18:28.362Z,8.53
2023-05-16T02:20:55.124Z,8.56
2023-05-16T02:23:22.022Z,8.55
2023-05-16T02:25:49.265Z,8.52
2023-05-16T02:28:15.988Z,8.48
2023-05-16T02:30:42.694Z,8.34
2023-05-16T02:33:10.767Z,8.38
2023-05-16T02:35:37.630Z,8.33
2023-05-16T02:38:04.361Z,8.31
2023-05-16T02:40:31.737Z,8.27
2023-05-16T02:42:58.631Z,8.23
2023-05-16T02:45:25.704Z,8.24
2023-05-16T02:47:52.702Z,8.09
2023-05-16T02:50:19.690Z,8.18
2023-05-16T02:52:47.356Z,8.16
2023-05-16T02:55:21.668Z,8.11
2023-05-16T02:57:50.788Z,8.10
2023-05-16T03:00:18.924Z,8.04
2023-05-16T03:02:45.815Z,8.01
2023-05-16T03:05:13.062Z,8.01
2023-05-16T03:07:39.899Z,7.95
2023-05-16T03:10:07.514Z,8.04
2023-05-16T03:12:36.792Z,8.01
2023-05-16T03:15:04.279Z,7.94
2023-05-16T03:17:31.390Z,7.92
2023-05-16T03:20:00.436Z,7.95
2023-05-16T03:22:27.339Z,7.73
2023-05-16T03:24:54.351Z,7.91
2023-05-16T03:27:23.736Z,7.88
2023-05-16T03:29:50.677Z,7.75
2023-05-16T03:32:19.932Z,7.84
2023-05-16T03:34:46.939Z,7.75
2023-05-16T03:37:16.628Z,7.80
2023-05-16T03:39:43.598Z,7.78
2023-05-16T03:42:10.345Z,7.81
2023-05-16T03:44:37.466Z,7.66
2023-05-16T03:47:06.881Z,7.71
2023-05-16T03:49:39.602Z,7.74
2023-05-16T03:52:07.072Z,7.79
2023-05-16T03:54:34.097Z,7.78
2023-05-16T03:57:03.144Z,7.78
2023-05-16T03:59:30.051Z,7.82
2023-05-16T04:01:59.387Z,7.84
2023-05-16T04:04:26.744Z,7.89
2023-05-16T04:06:53.588Z,7.93
2023-05-16T04:09:20.424Z,7.93
2023-05-16T04:11:49.542Z,8.01
2023-05-16T04:14:16.710Z,8.03
2023-05-16T04:16:43.742Z,8.09
2023-05-16T04:19:10.630Z,8.11
2023-05-16T04:21:40.418Z,8.10
2023-05-16T04:24:08.368Z,8.13
2023-05-16T04:26:36.560Z,8.32
2023-05-16T04:29:03.741Z,8.27
2023-05-16T04:31:31.194Z,8.41
2023-05-16T04:34:00.139Z,8.50
2023-05-16T04:36:30.208Z,8.50
2023-05-16T04:38:59.416Z,8.58
2023-05-16T04:41:25.976Z,8.69
2023-05-16T04:43:53.758Z,8.74
2023-05-16T04:46:22.616Z,8.77
2023-05-16T04:48:49.330Z,9.03
2023-05-16T04:51:16.083Z,9.23
2023-05-16T04:53:42.655Z,10.83
2023-05-16T04:56:09.232Z,12.87
2023-05-16T04:58:38.758Z,14.17
2023-05-16T05:01:06.378Z,14.89
2023-05-16T05:03:34.251Z,15.77
2023-05-16T05:06:01.902Z,16.39
2023-05-16T05:08:28.517Z,17.22
2023-05-16T05:10:56.695Z,17.69
2023-05-16T05:13:24.080Z,18.13
2023-05-16T05:15:52.370Z,18.79
2023-05-16T05:18:19.198Z,19.13
2023-05-16T05:20:46.029Z,19.89
2023-05-16T05:23:13.387Z,20.34
2023-05-16T05:25:40.940Z,20.55
2023-05-16T05:28:07.669Z,20.87
2023-05-16T05:30:36.593Z,22.07
2023-05-16T05:33:03.458Z,22.56
2023-05-16T05:35:30.378Z,21.99
2023-05-16T05:37:57.174Z,22.05
2023-05-16T05:40:24.032Z,22.48
2023-05-16T05:42:52.881Z,23.15
2023-05-16T05:45:19.606Z,23.98
2023-05-16T05:47:48.474Z,24.42
2023-05-16T05:50:17.857Z,24.06
2023-05-16T05:52:44.528Z,24.39
2023-05-16T05:55:13.817Z,24.07
2023-05-16T05:57:40.436Z,24.08
2023-05-16T06:00:10.432Z,24.21
2023-05-16T06:02:37.378Z,24.56
2023-05-16T06:05:04.382Z,24.32
2023-05-16T06:07:33.654Z,24.11
2023-05-16T06:10:05.123Z,24.58
2023-05-16T06:12:32.154Z,24.20
2023-05-16T06:14:58.816Z,24.35
2023-05-16T06:17:25.651Z,25.29
2023-05-16T06:19:52.831Z,25.78
2023-05-16T06:22:19.368Z,25.78
2023-05-16T06:24:45.944Z,25.92
2023-05-16T06:27:12.741Z,25.64
2023-05-16T06:29:39.732Z,25.31
2023-05-16T06:32:06.834Z,24.82
2023-05-16T06:34:33.439Z,24.40
2023-05-16T06:37:00.147Z,25.44
2023-05-16T06:39:29.033Z,25.24
2023-05-16T06:41:56.733Z,25.40
2023-05-16T06:44:24.203Z,25.82
2023-05-16T06:46:51.370Z,25.45
2023-05-16T06:49:18.505Z,24.49
2023-05-16T06:51:45.440Z,24.53
2023-05-16T06:54:12.421Z,24.09
2023-05-16T06:56:39.094Z,23.16
2023-05-16T06:59:05.795Z,23.58
2023-05-16T07:01:32.548Z,23.67
2023-05-16T07:03:59.364Z,24.01
2023-05-16T07:06:35.132Z,23.72
2023-05-16T07:09:02.350Z,23.39
2023-05-16T07:11:28.981Z,24.01
2023-05-16T07:13:58.677Z,24.12
2023-05-16T07:16:28.600Z,24.41
2023-05-16T07:19:02.486Z,23.66
2023-05-16T07:21:29.348Z,22.49
2023-05-16T07:23:58.229Z,23.77
2023-05-16T07:26:27.215Z,24.05
2023-05-16T07:28:53.858Z,24.41
2023-05-16T07:31:20.969Z,23.24
2023-05-16T07:33:47.583Z,22.16
2023-05-16T07:36:17.539Z,20.32
2023-05-16T07:38:45.134Z,19.90
2023-05-16T07:41:11.985Z,20.21
2023-05-16T07:43:38.655Z,20.41
2023-05-16T07:46:07.588Z,18.70
2023-05-16T07:48:36.666Z,17.89
2023-05-16T07:51:03.417Z,16.85
2023-05-16T07:53:30.021Z,17.43
2023-05-16T07:55:57.123Z,20.72
2023-05-16T07:58:26.199Z,19.23
2023-05-16T08:00:52.867Z,18.43
2023-05-16T08:03:22.389Z,20.28
2023-05-16T08:05:49.387Z,20.84
2023-05-16T08:08:16.227Z,21.37
2023-05-16T08:10:42.917Z,21.39
2023-05-16T08:13:11.935Z,21.30
2023-05-16T08:15:38.636Z,21.58
2023-05-16T08:18:13.648Z,20.02
2023-05-16T08:20:41.784Z,18.54
2023-05-16T08:23:09.423Z,18.30
2023-05-16T08:25:36.184Z,18.54
2023-05-16T08:28:05.753Z,17.76
2023-05-16T08:30:34.937Z,19.30
2023-05-16T08:33:04.966Z,21.43
2023-05-16T08:35:32.581Z,21.51
2023-05-16T08:37:59.358Z,21.66
2023-05-16T08:40:29.345Z,18.79
2023-05-16T08:42:56.607Z,19.31
2023-05-16T08:45:24.115Z,19.52
2023-05-16T08:47:58.267Z,21.08
2023-05-16T08:50:25.869Z,21.77
2023-05-16T08:52:54.154Z,21.68
2023-05-16T08:55:22.309Z,21.87
2023-05-16T08:57:54.891Z,19.17
2023-05-16T09:00:22.693Z,18.07
2023-05-16T09:02:50.385Z,17.58
2023-05-16T09:05:18.171Z,18.37
2023-05-16T09:07:46.160Z,18.00
2023-05-16T09:10:13.632Z,17.11
2023-05-16T09:12:44.027Z,16.36
2023-05-16T09:15:11.564Z,16.06
2023-05-16T09:17:46.835Z,16.81
2023-05-16T09:20:15.571Z,17.58
2023-05-16T09:22:52.843Z,18.16
2023-05-16T09:25:29.479Z,18.38
2023-05-16T09:28:00.104Z,18.42
2023-05-16T09:30:34.748Z,18.33
2023-05-16T09:33:02.014Z,18.47
2023-05-16T09:37:58.677Z,18.59
2023-05-16T09:40:25.576Z,17.43
2023-05-16T09:43:09.638Z,16.63
2023-05-16T09:45:37.054Z,16.96
2023-05-16T09:48:07.865Z,17.77
2023-05-16T09:50:36.995Z,18.17
2023-05-16T09:53:04.214Z,18.42
2023-05-16T09:55:31.527Z,18.19
2023-05-16T09:58:00.987Z,17.86
2023-05-16T10:00:32.454Z,17.72
2023-05-16T10:03:03.460Z,17.83
2023-05-16T10:05:31.993Z,17.97
2023-05-16T10:07:58.832Z,18.04
2023-05-16T10:10:26.748Z,17.66
2023-05-16T10:12:58.880Z,17.72
2023-05-16T10:15:26.512Z,18.00
2023-05-16T10:17:56.748Z,18.08
2023-05-16T10:20:23.825Z,17.74
2023-05-16T10:22:55.288Z,17.46
2023-05-16T10:25:29.472Z,17.72
2023-05-16T10:27:56.830Z,18.01
2023-05-16T10:30:23.523Z,18.25
2023-05-16T10:32:52.003Z,18.49
2023-05-16T10:35:20.179Z,18.09
2023-05-16T10:37:50.341Z,17.72
2023-05-16T10:40:17.574Z,17.36
2023-05-16T10:42:56.943Z,17.05
2023-05-16T10:45:24.014Z,17.18
2023-05-16T10:48:04.846Z,17.60
2023-05-16T10:50:52.733Z,18.42
2023-05-16T10:53:20.846Z,18.19
2023-05-16T10:55:59.550Z,17.93
2023-05-16T10:58:35.772Z,17.58
2023-05-16T11:01:17.931Z,17.31
2023-05-16T11:04:07.078Z,17.14
2023-05-16T11:06:42.739Z,17.06
2023-05-16T11:09:13.942Z,17.27
2023-05-16T11:11:46.313Z,17.65
2023-05-16T11:14:25.789Z,17.81
2023-05-16T11:17:17.856Z,17.23
2023-05-16T11:19:52.324Z,17.44
2023-05-16T11:22:19.008Z,17.36
2023-05-16T11:24:57.709Z,17.21
2023-05-16T11:27:27.026Z,17.04
2023-05-16T11:30:04.343Z,16.96
2023-05-16T11:32:35.659Z,16.90
2023-05-16T11:35:03.954Z,17.18
2023-05-16T11:37:31.296Z,16.93
2023-05-16T11:40:02.639Z,17.16
2023-05-16T11:42:38.155Z,17.13
2023-05-16T11:45:08.804Z,16.96
2023-05-16T11:47:40.657Z,17.07
2023-05-16T11:50:11.777Z,17.61
2023-05-16T11:52:38.698Z,17.90
2023-05-16T11:55:06.998Z,18.06
2023-05-16T11:57:34.109Z,17.82
2023-05-16T12:00:27.875Z,17.64
2023-05-16T12:03:01.413Z,17.58
2023-05-16T12:05:30.819Z,17.53
2023-05-16T12:07:59.811Z,17.72
2023-05-16T12:10:29.559Z,17.93
2023-05-16T12:12:56.722Z,17.98
2023-05-16T12:15:23.448Z,17.90
2023-05-16T12:17:50.986Z,17.87
2023-05-16T12:20:20.686Z,17.67
2023-05-16T12:22:50.456Z,17.67
2023-05-16T12:25:37.824Z,17.43
2023-05-16T12:28:05.279Z,17.44
2023-05-16T12:30:33.026Z,17.27
2023-05-16T12:33:13.823Z,17.30
2023-05-16T12:35:42.800Z,17.53
2023-05-16T12:38:13.131Z,17.59
2023-05-16T12:40:41.675Z,17.80
2023-05-16T12:43:25.555Z,17.98
2023-05-16T12:45:52.883Z,17.86
2023-05-16T12:48:20.273Z,17.63
2023-05-16T12:50:47.122Z,17.76
2023-05-16T12:53:20.072Z,17.36
2023-05-16T12:55:47.059Z,17.13
2023-05-16T12:58:17.652Z,17.14
2023-05-16T13:00:44.431Z,16.73
2023-05-16T13:03:12.348Z,16.54
2023-05-16T13:05:39.287Z,16.40
2023-05-16T13:08:06.341Z,16.48
2023-05-16T13:10:36.184Z,16.45
2023-05-16T13:13:04.832Z,16.49
2023-05-16T13:15:31.811Z,16.81
2023-05-16T13:18:00.923Z,16.94
2023-05-16T13:20:28.185Z,16.80
2023-05-16T13:22:55.802Z,16.96
2023-05-16T13:25:22.447Z,17.15
2023-05-16T13:27:51.500Z,17.01
2023-05-16T13:30:18.199Z,16.78
2023-05-16T13:32:47.142Z,16.72
2023-05-16T13:35:13.774Z,16.58
2023-05-16T13:37:41.557Z,16.55
2023-05-16T13:40:11.629Z,16.42
2023-05-16T13:42:41.171Z,16.32
2023-05-16T13:45:08.177Z,16.32
2023-05-16T13:47:37.558Z,16.40
2023-05-16T13:50:10.425Z,16.40
2023-05-16T13:52:38.514Z,16.51
2023-05-16T13:55:08.061Z,16.62
2023-05-16T13:57:35.000Z,16.60
2023-05-16T14:02:31.679Z,16.53
2023-05-16T14:04:58.416Z,16.39
2023-05-16T14:07:25.145Z,16.17
2023-05-16T14:09:51.821Z,16.00
2023-05-16T14:12:20.796Z,15.92
2023-05-16T14:14:47.410Z,15.75
2023-05-16T14:17:14.049Z,15.79
2023-05-16T14:19:40.754Z,15.99
2023-05-16T14:22:08.164Z,16.10
2023-05-16T14:24:34.929Z,16.25
2023-05-16T14:27:01.882Z,16.69
2023-05-16T14:29:28.612Z,16.91
2023-05-16T14:31:55.526Z,16.94
2023-05-16T14:34:23.743Z,17.09
2023-05-16T14:36:51.160Z,16.85
2023-05-16T14:39:20.411Z,16.59
2023-05-16T14:41:49.602Z,16.73
2023-05-16T14:44:19.470Z,16.79
2023-05-16T14:46:46.906Z,16.70
2023-05-16T14:49:14.007Z,16.62
2023-05-16T14:51:40.635Z,16.56
2023-05-16T14:54:07.592Z,16.59
2023-05-16T14:56:34.238Z,16.82
2023-05-16T14:59:03.141Z,16.89
2023-05-16T15:01:29.796Z,16.96
2023-05-16T15:03:58.873Z,16.86
2023-05-16T15:06:25.492Z,16.78
2023-05-16T15:08:52.471Z,16.81
2023-05-16T15:11:19.703Z,16.72
2023-05-16T15:13:46.438Z,16.80
2023-05-16T15:16:13.157Z,16.76
2023-05-16T15:18:40.508Z,16.59
2023-05-16T15:21:07.239Z,16.65
2023-05-16T15:23:33.985Z,16.64
2023-05-16T15:26:00.774Z,16.84
2023-05-16T15:28:32.141Z,16.79
2023-05-16T15:30:58.825Z,17.06
2023-05-16T15:33:25.521Z,17.07
2023-05-16T15:35:52.132Z,16.88
2023-05-16T15:38:20.965Z,16.94
2023-05-16T15:40:50.802Z,17.00
2023-05-16T15:43:24.640Z,17.08
2023-05-16T15:45:51.328Z,16.96
2023-05-16T15:48:18.021Z,16.90
2023-05-16T15:50:47.119Z,16.91
2023-05-16T15:53:14.058Z,16.93
2023-05-16T15:55:40.989Z,16.98
2023-05-16T15:58:07.822Z,17.02
2023-05-16T16:00:34.504Z,16.98
2023-05-16T16:03:01.669Z,16.89
2023-05-16T16:05:28.628Z,16.73
2023-05-16T16:07:55.481Z,16.67
2023-05-16T16:10:22.774Z,16.53
2023-05-16T16:13:07.394Z,16.34
2023-05-16T16:15:36.744Z,16.58
2023-05-16T16:18:03.793Z,16.79
2023-05-16T16:20:30.896Z,16.89
2023-05-16T16:22:57.767Z,16.89
2023-05-16T16:25:24.636Z,16.79
2023-05-16T16:27:54.590Z,16.69
2023-05-16T16:30:21.159Z,16.66
2023-05-16T16:32:48.962Z,16.56
2023-05-16T16:35:15.916Z,16.50
2023-05-16T16:37:48.765Z,16.39
2023-05-16T16:40:22.010Z,16.19
2023-05-16T16:42:48.634Z,16.00
2023-05-16T16:45:17.709Z,15.87
2023-05-16T16:47:46.993Z,15.78
2023-05-16T16:50:13.667Z,15.64
2023-05-16T16:52:43.304Z,15.61
2023-05-16T16:55:10.051Z,15.51
2023-05-16T16:57:36.941Z,15.47
2023-05-16T17:00:04.082Z,15.49
2023-05-16T17:02:30.932Z,15.47
2023-05-16T17:04:59.826Z,15.42
2023-05-16T17:07:29.007Z,15.34
2023-05-16T17:09:56.396Z,15.35
2023-05-16T17:12:23.064Z,15.32
2023-05-16T17:14:51.479Z,15.21
2023-05-16T17:17:18.948Z,15.13
2023-05-16T17:19:47.033Z,15.03
2023-05-16T17:22:16.718Z,14.99
2023-05-16T17:24:45.767Z,14.87
2023-05-16T17:27:14.752Z,15.06
2023-05-16T17:29:44.086Z,15.07
2023-05-16T17:32:11.632Z,15.17
2023-05-16T17:34:43.140Z,15.12
2023-05-16T17:37:10.640Z,15.09
2023-05-16T17:39:37.375Z,15.07
2023-05-16T17:42:05.659Z,15.02
2023-05-16T17:44:34.732Z,14.98
2023-05-16T17:47:01.423Z,14.89
2023-05-16T17:49:28.009Z,14.88
2023-05-16T17:51:56.829Z,14.85
2023-05-16T17:54:27.276Z,14.77
2023-05-16T17:56:54.717Z,14.78
2023-05-16T17:59:21.736Z,14.76
2023-05-16T18:01:49.060Z,14.72
2023-05-16T18:04:15.877Z,14.78
2023-05-16T18:06:46.199Z,14.73
2023-05-16T18:09:15.141Z,14.72
2023-05-16T18:11:42.709Z,14.75
2023-05-16T18:14:14.130Z,14.77
2023-05-16T18:16:40.905Z,14.82
2023-05-16T18:19:08.799Z,14.85
2023-05-16T18:21:36.482Z,15.09
2023-05-16T18:24:03.375Z,15.25
2023-05-16T18:26:30.343Z,14.92
2023-05-16T18:28:58.247Z,14.97
2023-05-16T18:31:24.955Z,14.92
2023-05-16T18:33:51.905Z,14.85
2023-05-16T18:36:20.960Z,14.84
2023-05-16T18:38:47.924Z,14.87
2023-05-16T18:41:15.534Z,14.88
2023-05-16T18:43:43.685Z,14.78
2023-05-16T18:46:13.282Z,14.66
2023-05-16T18:48:40.031Z,14.43
2023-05-16T18:51:06.791Z,14.35
2023-05-16T18:53:33.576Z,14.21
2023-05-16T18:56:02.589Z,14.11
2023-05-16T18:58:31.483Z,13.95
2023-05-16T19:01:04.095Z,14.19
2023-05-16T19:03:33.471Z,13.93
2023-05-16T19:06:00.366Z,13.82
2023-05-16T19:08:31.238Z,13.70
2023-05-16T19:11:03.668Z,13.60
2023-05-16T19:13:32.379Z,13.51
2023-05-16T19:16:02.141Z,13.42
2023-05-16T19:18:29.405Z,13.32
2023-05-16T19:20:56.134Z,13.22
2023-05-16T19:23:27.626Z,13.13
2023-05-16T19:25:54.732Z,13.04
2023-05-16T19:28:21.402Z,12.95
2023-05-16T19:30:48.416Z,12.88
2023-05-16T19:33:15.475Z,12.82
2023-05-16T19:35:42.144Z,12.66
2023-05-16T19:38:08.892Z,12.70
2023-05-16T19:40:35.656Z,12.66
2023-05-16T19:43:04.782Z,12.55
2023-05-16T19:45:33.548Z,12.53
2023-05-16T19:48:02.709Z,12.59
2023-05-16T19:50:29.525Z,12.62
2023-05-16T19:52:58.507Z,12.60
2023-05-16T19:55:27.382Z,12.57
2023-05-16T19:57:55.635Z,12.48
2023-05-16T20:00:25.168Z,12.52
2023-05-16T20:02:52.747Z,12.49
2023-05-16T20:05:25.521Z,12.36
2023-05-16T20:07:58.143Z,12.32
2023-05-16T20:10:25.019Z,12.13
2023-05-16T20:12:51.883Z,12.12
2023-05-16T20:15:21.316Z,11.91
2023-05-16T20:17:48.172Z,11.89
2023-05-16T20:20:17.455Z,11.82
2023-05-16T20:22:44.380Z,11.82
2023-05-16T20:25:12.088Z,11.70
2023-05-16T20:27:39.291Z,11.73
2023-05-16T20:30:07.436Z,11.66
2023-05-16T20:32:36.780Z,11.60
2023-05-16T20:35:05.065Z,11.57
2023-05-16T20:37:34.140Z,11.48
2023-05-16T20:40:03.519Z,11.26
2023-05-16T20:42:30.521Z,11.40
2023-05-16T20:44:57.263Z,11.36
2023-05-16T20:47:24.128Z,11.35
2023-05-16T20:49:50.919Z,11.28
2023-05-16T20:52:18.043Z,11.22
2023-05-16T20:54:48.630Z,11.08
2023-05-16T20:57:16.269Z,11.09
2023-05-16T20:59:43.006Z,11.04
2023-05-16T21:02:12.788Z,11.04
2023-05-16T21:04:42.044Z,11.03
2023-05-16T21:07:11.412Z,11.00
2023-05-16T21:09:41.455Z,10.93
2023-05-16T21:12:08.513Z,10.83
2023-05-16T21:14:35.254Z,10.87
2023-05-16T21:17:04.312Z,10.83
2023-05-16T21:19:35.046Z,10.77
2023-05-16T21:22:04.271Z,10.76
2023-05-16T21:24:35.382Z,10.65
2023-05-16T21:27:03.901Z,10.68
2023-05-16T21:29:31.311Z,10.58
2023-05-16T21:31:58.783Z,10.52
2023-05-16T21:34:28.850Z,10.59
2023-05-16T21:36:58.766Z,10.47
2023-05-16T21:39:25.789Z,10.50
2023-05-16T21:41:52.551Z,10.41
2023-05-16T21:44:19.565Z,10.45
2023-05-16T21:46:46.615Z,10.42
2023-05-16T21:49:16.056Z,10.38
2023-05-16T21:51:42.901Z,10.32
2023-05-16T21:54:09.783Z,10.15
2023-05-16T21:56:36.742Z,10.27
2023-05-16T21:59:03.724Z,10.24
2023-05-16T22:01:30.621Z,10.20
2023-05-16T22:03:57.826Z,9.98
2023-05-16T22:06:25.261Z,9.99
2023-05-16T22:08:52.408Z,10.14
2023-05-16T22:11:22.335Z,9.81
2023-05-16T22:13:51.517Z,9.92
2023-05-16T22:16:20.577Z,10.02
2023-05-16T22:18:47.805Z,9.94
2023-05-16T22:21:16.303Z,10.00
2023-05-16T22:23:43.103Z,9.94
2023-05-16T22:26:09.957Z,9.81
2023-05-16T22:28:36.672Z,9.85
2023-05-16T22:31:03.383Z,9.85
2023-05-16T22:33:30.228Z,9.75
2023-05-16T22:35:59.510Z,9.72
2023-05-16T22:38:26.364Z,9.76
2023-05-16T22:40:58.330Z,9.79
2023-05-16T22:43:25.122Z,9.72
2023-05-16T22:45:54.572Z,9.72
2023-05-16T22:48:21.534Z,9.63
2023-05-16T22:50:48.273Z,9.41
2023-05-16T22:53:15.070Z,9.66
2023-05-16T22:55:44.293Z,9.63
2023-05-16T22:58:10.999Z,9.57
2023-05-16T23:00:37.755Z,9.50
2023-05-16T23:03:04.648Z,9.60
2023-05-16T23:05:36.328Z,9.58
2023-05-16T23:08:04.414Z,9.45
2023-05-16T23:10:32.400Z,9.54
2023-05-16T23:13:01.771Z,9.50
2023-05-16T23:15:28.766Z,9.45
2023-05-16T23:17:56.449Z,9.36
2023-05-16T23:20:23.449Z,9.41
2023-05-16T23:22:50.461Z,9.46
2023-05-16T23:25:17.575Z,9.44
2023-05-16T23:27:44.420Z,9.32
2023-05-16T23:30:12.173Z,9.36
2023-05-16T23:32:39.030Z,9.40
2023-05-16T23:35:06.413Z,9.36
2023-05-16T23:37:36.113Z,9.36
2023-05-16T23:40:03.000Z,9.33
2023-05-16T23:42:29.902Z,9.32
2023-05-16T23:44:59.104Z,9.17
2023-05-16T23:47:26.810Z,9.29
2023-05-16T23:49:53.655Z,9.27
2023-05-16T23:52:20.711Z,9.26
2023-05-16T23:54:47.753Z,9.24
2023-05-16T23:57:16.967Z,8.37
2023-05-16T23:59:43.676Z,9.24
